Time;durP1;ratioP1;P1;durP2;ratioP2;P2;SDS_P1;SDS_P2;PMS_P1;PMS_P2;Temp;Humidity;BMP_temperature;BMP_pressure;BME280_temperature;BME280_humidity;BME280_pressure;Samples;Min_cycle;Max_cycle;Signal;HPM_P1;HPM_P2
2022/09/23 00:00:39;;;;;;;7.10;2.40;;;14.20;62.90;;;;;;5038793;28;20247;-67
2022/09/23 00:03:05;;;;;;;3.80;2.58;;;14.20;63.10;;;;;;5038435;28;20163;-67
2022/09/23 00:05:30;;;;;;;5.00;2.42;;;14.20;62.90;;;;;;5038169;28;20116;-66
2022/09/23 00:07:57;;;;;;;6.50;2.20;;;14.10;63.30;;;;;;5034568;28;20029;-66
2022/09/23 00:10:25;;;;;;;4.22;2.40;;;14.10;63.00;;;;;;5035134;28;20549;-66
2022/09/23 00:12:51;;;;;;;4.93;2.78;;;14.00;63.30;;;;;;5035467;28;20407;-66
2022/09/23 00:15:17;;;;;;;3.55;2.03;;;14.00;63.30;;;;;;5035132;28;20032;-67
2022/09/23 00:17:43;;;;;;;2.95;1.65;;;14.00;63.40;;;;;;5035302;28;20089;-66
2022/09/23 00:20:10;;;;;;;4.00;1.60;;;14.00;63.30;;;;;;5035111;28;20107;-67
2022/09/23 00:22:36;;;;;;;6.85;1.40;;;14.00;63.40;;;;;;5035220;28;20025;-66
2022/09/23 00:25:07;;;;;;;3.50;1.60;;;14.00;63.40;;;;;;5035080;28;20036;-72
2022/09/23 00:27:33;;;;;;;1.85;1.10;;;14.10;63.10;;;;;;5034941;28;20097;-66
2022/09/23 00:30:00;;;;;;;3.17;1.17;;;14.00;62.90;;;;;;5035723;28;20113;-67
2022/09/23 00:32:26;;;;;;;1.92;1.20;;;14.00;62.80;;;;;;5034926;28;20104;-67
2022/09/23 00:34:51;;;;;;;2.33;1.30;;;14.00;62.50;;;;;;5034969;28;20025;-67
2022/09/23 00:37:18;;;;;;;1.92;1.20;;;14.10;62.40;;;;;;5035030;28;20442;-67
2022/09/23 00:39:45;;;;;;;3.78;1.30;;;14.10;62.50;;;;;;5034814;28;20037;-67
2022/09/23 00:42:16;;;;;;;5.20;1.25;;;14.20;62.40;;;;;;5034902;28;20033;-67
2022/09/23 00:44:54;;;;;;;1.35;1.00;;;14.20;62.20;;;;;;5034834;28;20076;-66
2022/09/23 00:47:28;;;;;;;1.60;1.10;;;14.20;61.80;;;;;;5034511;28;20029;-67
2022/09/23 00:50:11;;;;;;;2.88;1.30;;;14.20;62.00;;;;;;5034692;28;20030;-73
2022/09/23 00:52:37;;;;;;;2.85;1.20;;;14.20;61.80;;;;;;5034663;28;20032;-66
2022/09/23 00:55:28;;;;;;;1.55;1.05;;;14.20;62.30;;;;;;5034647;28;20021;-67
2022/09/23 00:57:57;;;;;;;4.32;1.50;;;14.30;62.10;;;;;;5032859;28;20561;-68
2022/09/23 01:00:23;;;;;;;2.47;1.10;;;14.30;62.10;;;;;;5031650;28;20034;-67
2022/09/23 01:02:50;;;;;;;4.53;1.13;;;14.30;62.00;;;;;;5031699;28;20109;-67
2022/09/23 01:05:16;;;;;;;2.47;1.10;;;14.20;61.70;;;;;;5033540;28;20029;-67
2022/09/23 01:07:45;;;;;;;2.33;1.30;;;14.30;61.90;;;;;;5034163;28;20108;-67
2022/09/23 01:10:12;;;;;;;4.13;1.08;;;14.20;61.60;;;;;;5033611;28;20076;-66
2022/09/23 01:13:07;;;;;;;3.22;1.10;;;14.30;61.70;;;;;;5034358;28;20037;-67
2022/09/23 01:15:53;;;;;;;1.90;1.10;;;14.30;61.60;;;;;;5034176;28;20029;-69
2022/09/23 01:18:27;;;;;;;3.83;1.20;;;14.30;61.40;;;;;;5029681;28;20506;-66
2022/09/23 01:21:11;;;;;;;3.00;1.30;;;14.30;61.70;;;;;;5033383;28;20037;-66
2022/09/23 01:23:52;;;;;;;3.13;1.30;;;14.30;61.50;;;;;;5033537;28;20095;-67
2022/09/23 01:26:47;;;;;;;2.55;1.10;;;14.20;61.50;;;;;;5033604;28;20448;-66
2022/09/23 01:29:36;;;;;;;2.72;1.30;;;14.20;61.70;;;;;;5033407;28;20025;-66
2022/09/23 01:32:11;;;;;;;2.03;1.17;;;14.20;61.60;;;;;;5033321;28;20116;-67
2022/09/23 01:34:55;;;;;;;4.13;1.38;;;14.20;61.80;;;;;;5033961;28;20441;-66
2022/09/23 01:37:50;;;;;;;3.58;1.20;;;14.10;61.70;;;;;;5033621;28;20049;-66
2022/09/23 01:40:45;;;;;;;1.88;1.13;;;14.10;61.60;;;;;;5029465;28;20103;-66
2022/09/23 01:43:37;;;;;;;1.80;1.02;;;14.10;61.90;;;;;;5028528;28;20032;-67
2022/09/23 01:46:10;;;;;;;2.40;1.38;;;14.10;61.60;;;;;;5032448;28;20368;-66
2022/09/23 01:48:46;;;;;;;4.05;1.17;;;14.10;62.00;;;;;;5033726;28;20067;-66
2022/09/23 01:51:18;;;;;;;2.78;1.60;;;14.10;61.70;;;;;;5033561;28;20107;-66
2022/09/23 01:53:47;;;;;;;;;;;14.10;61.90;;;;;;5033875;28;20096;-66
2022/09/23 01:56:23;;;;;;;1.90;1.23;;;14.10;62.00;;;;;;5033547;28;20058;-66
2022/09/23 01:59:11;;;;;;;2.65;1.30;;;14.00;61.80;;;;;;5033579;28;20025;-66
2022/09/23 02:02:02;;;;;;;2.72;1.20;;;14.00;62.20;;;;;;5033275;28;20036;-65
2022/09/23 02:04:50;;;;;;;4.68;1.30;;;14.00;62.20;;;;;;5033356;28;20081;-73
2022/09/23 02:07:27;;;;;;;3.72;1.40;;;14.00;61.90;;;;;;5033160;28;20025;-66
2022/09/23 02:10:01;;;;;;;4.00;1.40;;;14.10;61.80;;;;;;5033119;28;20025;-66
2022/09/23 02:12:29;;;;;;;2.58;1.27;;;14.00;62.00;;;;;;5032762;28;20077;-66
2022/09/23 02:15:03;;;;;;;2.63;1.00;;;14.00;62.10;;;;;;5033035;28;20029;-66
2022/09/23 02:17:57;;;;;;;7.47;1.33;;;14.10;62.30;;;;;;5033081;28;20025;-66
2022/09/23 02:20:35;;;;;;;1.90;1.02;;;14.00;62.20;;;;;;5030721;28;20056;-66
2022/09/23 02:23:39;;;;;;;2.05;1.33;;;14.00;62.20;;;;;;5032850;28;20101;-66
2022/09/23 02:26:19;;;;;;;2.08;1.23;;;14.00;62.50;;;;;;5022121;28;20554;-65
2022/09/23 02:29:19;;;;;;;2.38;1.20;;;13.90;62.80;;;;;;5032557;28;20121;-66
2022/09/23 02:31:57;;;;;;;2.97;1.27;;;13.90;63.10;;;;;;5033284;28;20040;-66
2022/09/23 02:34:32;;;;;;;3.15;1.23;;;13.90;63.70;;;;;;5033028;28;20033;-66
2022/09/23 02:37:08;;;;;;;1.73;1.30;;;13.80;63.50;;;;;;5032763;28;20112;-66
2022/09/23 02:39:49;;;;;;;1.75;1.40;;;13.70;63.00;;;;;;5032750;28;20021;-66
2022/09/23 02:42:27;;;;;;;3.92;1.40;;;13.70;63.20;;;;;;5033159;28;20029;-66
2022/09/23 02:44:53;;;;;;;4.00;1.40;;;13.60;63.30;;;;;;5032973;28;20087;-66
2022/09/23 02:47:23;;;;;;;2.55;1.65;;;13.60;63.00;;;;;;5033021;28;20434;-66
2022/09/23 02:49:50;;;;;;;2.75;1.35;;;13.50;63.50;;;;;;5032635;28;20052;-66
2022/09/23 02:52:16;;;;;;;1.85;1.30;;;13.50;63.80;;;;;;5032608;28;20045;-66
2022/09/23 02:54:42;;;;;;;3.08;1.33;;;13.40;65.00;;;;;;5033043;28;20435;-66
2022/09/23 02:57:09;;;;;;;2.17;1.20;;;13.40;64.20;;;;;;5033170;28;20440;-66
2022/09/23 02:59:35;;;;;;;4.72;1.40;;;13.30;64.60;;;;;;5032560;28;20025;-66
2022/09/23 03:02:29;;;;;;;2.60;1.38;;;13.30;64.70;;;;;;5032867;28;20025;-65
2022/09/23 03:05:00;;;;;;;2.08;1.40;;;13.30;64.90;;;;;;5033087;28;20061;-72
2022/09/23 03:07:34;;;;;;;4.00;1.50;;;13.30;65.40;;;;;;5032753;28;20021;-66
2022/09/23 03:10:09;;;;;;;3.30;1.52;;;13.20;65.50;;;;;;5032439;28;20048;-66
2022/09/23 03:12:43;;;;;;;3.72;1.48;;;13.20;65.50;;;;;;5032479;28;20072;-66
2022/09/23 03:15:28;;;;;;;1.60;1.40;;;13.20;65.40;;;;;;5032267;28;20025;-65
2022/09/23 03:18:13;;;;;;;4.10;1.50;;;13.20;65.70;;;;;;5032651;28;20034;-66
2022/09/23 03:20:50;;;;;;;4.80;1.85;;;13.20;65.30;;;;;;5032247;28;20118;-67
2022/09/23 03:23:24;;;;;;;2.03;1.60;;;13.20;65.10;;;;;;5032330;28;20556;-66
2022/09/23 03:25:53;;;;;;;3.17;1.40;;;13.20;65.40;;;;;;5032354;28;20025;-66
2022/09/23 03:28:21;;;;;;;4.88;1.23;;;13.20;65.30;;;;;;5032527;28;20027;-66
2022/09/23 03:30:50;;;;;;;2.88;1.30;;;13.20;65.20;;;;;;5032559;28;20038;-66
2022/09/23 03:33:18;;;;;;;4.88;1.50;;;13.30;65.10;;;;;;5032338;28;20502;-66
2022/09/23 03:38:41;;;;;;;2.42;1.38;;;13.30;65.10;;;;;;5032572;28;20575;-66
2022/09/23 03:41:15;;;;;;;5.07;1.65;;;13.30;65.30;;;;;;5032582;28;20030;-66
2022/09/23 03:43:43;;;;;;;5.88;1.40;;;13.30;65.70;;;;;;5036083;28;20022;-66
2022/09/23 03:46:09;;;;;;;4.47;1.30;;;13.40;66.00;;;;;;5035785;28;20025;-65
2022/09/23 03:48:35;;;;;;;1.70;1.30;;;13.40;65.80;;;;;;5035987;28;20068;-66
2022/09/23 03:51:24;;;;;;;1.90;1.30;;;13.40;65.70;;;;;;5035430;28;20073;-66
2022/09/23 03:53:50;;;;;;;2.78;1.48;;;13.40;65.50;;;;;;5035721;28;20096;-66
2022/09/23 03:56:16;;;;;;;2.75;1.20;;;13.40;65.40;;;;;;5035383;28;20100;-66
2022/09/23 03:58:42;;;;;;;3.85;1.10;;;13.40;64.90;;;;;;5035413;28;20030;-66
2022/09/23 04:01:08;;;;;;;3.85;1.48;;;13.40;65.30;;;;;;5035626;28;20108;-66
2022/09/23 04:03:34;;;;;;;2.67;1.40;;;13.40;64.70;;;;;;5035685;28;20052;-66
2022/09/23 04:05:59;;;;;;;4.25;1.13;;;13.50;64.80;;;;;;5035458;28;20080;-66
2022/09/23 04:08:26;;;;;;;3.72;1.50;;;13.50;64.40;;;;;;5035688;28;20030;-66
2022/09/23 04:10:51;;;;;;;6.43;1.80;;;13.50;64.50;;;;;;5035502;28;20116;-66
2022/09/23 04:13:17;;;;;;;2.53;1.77;;;13.50;64.80;;;;;;5035567;28;20117;-66
2022/09/23 04:15:43;;;;;;;5.78;2.20;;;13.50;64.80;;;;;;5035442;28;20025;-65
2022/09/23 04:18:09;;;;;;;2.47;1.60;;;13.50;64.60;;;;;;5035720;28;20029;-65
2022/09/23 04:20:34;;;;;;;3.03;1.70;;;13.40;65.30;;;;;;5035412;28;20032;-66
2022/09/23 04:23:00;;;;;;;8.43;1.77;;;13.40;65.50;;;;;;5035399;28;20026;-66
2022/09/23 04:25:25;;;;;;;3.38;1.70;;;13.40;65.30;;;;;;5035557;28;20071;-68
2022/09/23 04:27:51;;;;;;;5.15;1.80;;;13.30;65.70;;;;;;5035266;28;20033;-66
2022/09/23 04:30:17;;;;;;;6.63;1.88;;;13.30;65.90;;;;;;5035477;28;20026;-66
2022/09/23 04:32:43;;;;;;;5.78;1.90;;;13.30;66.10;;;;;;5035000;28;20513;-65
2022/09/23 04:35:08;;;;;;;4.15;1.85;;;13.30;66.40;;;;;;5035102;28;20029;-66
2022/09/23 04:37:34;;;;;;;12.38;1.90;;;13.30;66.00;;;;;;5033958;28;20029;-66
2022/09/23 04:40:01;;;;;;;4.68;2.58;;;13.20;66.00;;;;;;5035119;28;20132;-66
2022/09/23 04:42:30;;;;;;;4.80;1.98;;;13.20;66.40;;;;;;5034774;28;20021;-66
2022/09/23 04:44:55;;;;;;;5.45;1.95;;;13.20;66.80;;;;;;5034377;28;20494;-66
2022/09/23 04:47:21;;;;;;;5.43;2.15;;;13.10;66.80;;;;;;5034795;28;20029;-66
2022/09/23 04:49:46;;;;;;;4.88;1.95;;;13.10;66.40;;;;;;5034755;28;20029;-66
2022/09/23 04:52:12;;;;;;;8.77;2.20;;;13.10;66.80;;;;;;5034141;28;20044;-72
2022/09/23 04:54:40;;;;;;;3.85;2.10;;;13.00;67.30;;;;;;5034746;28;20099;-66
2022/09/23 04:57:06;;;;;;;5.43;1.95;;;13.10;67.20;;;;;;5034629;28;20060;-65
2022/09/23 04:59:32;;;;;;;4.15;2.30;;;13.00;67.30;;;;;;5034946;28;20026;-72
2022/09/23 05:01:58;;;;;;;5.45;2.20;;;13.00;67.60;;;;;;5034659;28;20052;-66
2022/09/23 05:04:23;;;;;;;22.30;3.05;;;12.90;67.30;;;;;;5034485;28;20021;-66
2022/09/23 05:06:49;;;;;;;10.50;2.40;;;12.90;67.10;;;;;;5034699;28;20022;-65
2022/09/23 05:09:16;;;;;;;15.40;2.63;;;12.90;67.20;;;;;;5034572;28;20025;-66
2022/09/23 05:11:42;;;;;;;10.90;2.92;;;12.90;67.50;;;;;;5034529;28;20395;-66
2022/09/23 05:14:08;;;;;;;21.50;3.08;;;12.90;67.80;;;;;;5034297;28;20021;-72
2022/09/23 05:16:34;;;;;;;21.52;3.28;;;12.90;68.20;;;;;;5034385;28;20087;-72
2022/09/23 05:19:02;;;;;;;11.07;2.03;;;12.90;68.00;;;;;;5034292;28;20426;-74
2022/09/23 05:21:27;;;;;;;5.82;1.50;;;12.90;67.90;;;;;;5034674;28;20030;-68
2022/09/23 05:23:57;;;;;;;5.60;1.55;;;12.90;67.60;;;;;;5033990;28;20494;-66
2022/09/23 05:26:25;;;;;;;4.18;1.35;;;12.90;67.90;;;;;;5034018;28;20037;-66
2022/09/23 05:28:51;;;;;;;2.05;1.40;;;12.90;67.30;;;;;;5034000;28;20033;-66
2022/09/23 05:31:20;;;;;;;2.58;1.48;;;12.90;66.90;;;;;;5034206;28;20503;-66
2022/09/23 05:33:48;;;;;;;3.97;1.50;;;13.00;66.60;;;;;;5033800;28;20105;-66
2022/09/23 05:36:16;;;;;;;4.50;1.77;;;12.90;66.70;;;;;;5034103;28;20025;-72
2022/09/23 05:38:43;;;;;;;4.57;1.70;;;13.00;66.40;;;;;;5033976;28;20053;-72
2022/09/23 05:41:11;;;;;;;2.22;1.70;;;13.00;66.40;;;;;;5033935;28;20487;-66
2022/09/23 05:43:37;;;;;;;2.58;1.77;;;13.10;66.60;;;;;;5033894;28;20037;-67
2022/09/23 05:46:09;;;;;;;16.98;3.13;;;13.10;66.90;;;;;;5033687;28;20171;-71
2022/09/23 05:48:35;;;;;;;13.70;3.33;;;13.10;66.80;;;;;;5033501;28;20475;-72
2022/09/23 05:51:02;;;;;;;27.33;3.15;;;13.10;66.90;;;;;;5033338;28;20128;-72
2022/09/23 05:53:28;;;;;;;25.00;3.67;;;13.10;66.90;;;;;;5033443;28;20099;-66
2022/09/23 05:55:57;;;;;;;19.48;3.47;;;13.10;66.90;;;;;;5033377;28;20030;-71
2022/09/23 05:58:23;;;;;;;18.17;3.67;;;13.00;67.30;;;;;;5032797;28;20144;-70
2022/09/23 06:00:50;;;;;;;14.60;2.78;;;13.00;67.80;;;;;;5032535;28;20053;-70
2022/09/23 06:03:19;;;;;;;19.80;2.63;;;13.00;67.90;;;;;;5032768;28;20009;-66
2022/09/23 06:05:45;;;;;;;13.75;2.90;;;12.90;68.30;;;;;;5032340;28;20048;-69
2022/09/23 06:08:11;;;;;;;10.77;2.58;;;12.90;69.10;;;;;;5033618;28;20034;-67
2022/09/23 06:10:42;;;;;;;7.95;2.50;;;13.00;68.50;;;;;;5033292;28;20037;-66
2022/09/23 06:13:08;;;;;;;8.65;2.10;;;13.00;68.60;;;;;;5033253;28;20033;-66
2022/09/23 06:15:35;;;;;;;4.32;1.65;;;13.00;68.60;;;;;;5033245;28;20025;-73
2022/09/23 06:18:01;;;;;;;15.00;2.17;;;13.00;68.40;;;;;;5033252;28;20029;-72
2022/09/23 06:20:27;;;;;;;11.05;1.98;;;13.10;68.10;;;;;;5032829;28;20423;-72
2022/09/23 06:22:53;;;;;;;8.45;1.90;;;13.10;68.00;;;;;;5033025;28;20116;-66
2022/09/23 06:25:20;;;;;;;12.40;2.00;;;13.10;67.80;;;;;;5033156;28;20032;-66
2022/09/23 06:27:53;;;;;;;4.97;1.98;;;13.20;68.00;;;;;;5033184;28;20025;-70
2022/09/23 06:30:20;;;;;;;38.88;3.78;;;13.20;68.00;;;;;;5032705;28;20387;-67
2022/09/23 06:32:50;;;;;;;4.43;1.70;;;13.40;76.30;;;;;;5032872;28;20064;-63
2022/09/23 06:35:20;;;;;;;6.00;2.17;;;13.40;73.80;;;;;;5032875;28;20025;-67
2022/09/23 06:37:46;;;;;;;7.95;2.25;;;13.50;77.90;;;;;;5032813;28;20044;-69
2022/09/23 06:40:13;;;;;;;4.22;2.40;;;13.40;67.70;;;;;;5030910;28;20021;-63
2022/09/23 06:42:42;;;;;;;9.50;2.03;;;13.50;67.80;;;;;;5032631;28;20021;-63
2022/09/23 06:45:13;;;;;;;7.18;2.25;;;13.50;67.90;;;;;;5031790;28;20033;-62
2022/09/23 06:47:41;;;;;;;5.95;2.10;;;13.60;67.90;;;;;;4964879;28;20037;-67
2022/09/23 06:50:07;;;;;;;8.88;2.15;;;13.60;68.00;;;;;;5031570;28;20058;-61
2022/09/23 06:52:33;;;;;;;10.52;2.10;;;13.70;67.90;;;;;;5031648;28;20033;-65
2022/09/23 06:55:00;;;;;;;7.45;1.90;;;13.70;68.10;;;;;;5031964;28;20017;-64
2022/09/23 06:57:29;;;;;;;4.65;1.52;;;13.80;67.90;;;;;;5031733;28;20029;-62
2022/09/23 06:59:57;;;;;;;5.72;1.60;;;13.90;68.40;;;;;;5032230;28;20044;-63
2022/09/23 07:02:22;;;;;;;4.72;1.40;;;13.90;67.70;;;;;;5032275;28;20036;-63
2022/09/23 07:04:48;;;;;;;4.22;1.52;;;14.00;68.10;;;;;;5032501;28;20119;-68
2022/09/23 07:07:15;;;;;;;2.20;1.45;;;14.10;67.10;;;;;;5032572;28;20037;-62
2022/09/23 07:09:41;;;;;;;5.75;1.48;;;14.10;66.80;;;;;;5032251;28;20038;-62
2022/09/23 07:12:07;;;;;;;3.35;1.40;;;14.10;66.60;;;;;;5031961;28;20122;-63
2022/09/23 07:14:32;;;;;;;3.13;1.52;;;14.20;66.30;;;;;;5032240;28;20037;-67
2022/09/23 07:16:58;;;;;;;1.63;1.13;;;14.30;65.90;;;;;;5034693;28;20029;-63
2022/09/23 07:19:25;;;;;;;1.85;1.30;;;14.30;65.90;;;;;;5035443;28;20060;-63
2022/09/23 07:21:50;;;;;;;4.40;1.40;;;14.30;65.70;;;;;;5035606;28;20057;-63
2022/09/23 07:24:16;;;;;;;2.38;1.30;;;14.40;65.40;;;;;;5035685;28;20442;-62
2022/09/23 07:26:42;;;;;;;4.88;1.20;;;14.50;64.70;;;;;;5035522;28;20365;-62
2022/09/23 07:29:12;;;;;;;3.75;1.20;;;14.60;64.60;;;;;;5035870;28;20036;-62
2022/09/23 07:31:38;;;;;;;2.70;1.20;;;14.60;64.70;;;;;;5036083;28;20102;-62
2022/09/23 07:34:04;;;;;;;1.92;1.10;;;14.60;64.50;;;;;;5035806;28;20088;-67
2022/09/23 07:36:31;;;;;;;4.25;1.05;;;14.70;64.10;;;;;;5035889;28;20103;-68
2022/09/23 07:39:01;;;;;;;2.70;1.73;;;14.70;63.70;;;;;;5035519;28;20024;-65
2022/09/23 07:41:28;;;;;;;4.35;1.35;;;14.80;63.50;;;;;;5036071;28;20037;-68
2022/09/23 07:43:57;;;;;;;3.08;1.73;;;14.90;63.50;;;;;;5035577;28;20075;-68
2022/09/23 07:46:25;;;;;;;2.10;1.30;;;14.90;63.20;;;;;;5035383;28;20033;-69
2022/09/23 07:48:52;;;;;;;4.30;1.10;;;15.00;63.30;;;;;;5035524;28;20116;-69
2022/09/23 07:51:38;;;;;;;3.75;1.20;;;15.00;62.90;;;;;;5035760;28;20053;-68
2022/09/23 07:54:06;;;;;;;6.72;1.48;;;15.10;62.70;;;;;;5035433;28;20053;-64
2022/09/23 07:56:33;;;;;;;1.30;0.90;;;15.20;62.00;;;;;;5035261;28;20031;-68
2022/09/23 07:59:00;;;;;;;1.92;0.93;;;15.20;61.30;;;;;;5034939;28;20036;-67
2022/09/23 08:01:38;;;;;;;1.35;0.80;;;15.30;61.20;;;;;;5035662;28;20025;-64
2022/09/23 08:04:11;;;;;;;1.85;1.05;;;15.40;60.80;;;;;;5035128;28;20116;-67
2022/09/23 08:06:41;;;;;;;;;;;15.40;60.20;;;;;;5035004;28;20021;-64
2022/09/23 08:09:07;;;;;;;5.22;1.40;;;15.40;60.40;;;;;;5035741;28;20008;-70
2022/09/23 08:11:34;;;;;;;4.70;1.95;;;15.50;60.30;;;;;;5035346;28;20073;-63
2022/09/23 08:13:59;;;;;;;3.65;0.90;;;15.50;60.20;;;;;;5035806;28;20033;-64
2022/09/23 08:16:25;;;;;;;1.95;1.10;;;15.60;60.40;;;;;;5035756;28;20036;-64
2022/09/23 08:18:51;;;;;;;1.55;1.20;;;15.60;60.00;;;;;;5035301;28;20038;-66
2022/09/23 08:21:21;;;;;;;4.07;1.20;;;15.70;60.10;;;;;;5035423;28;20041;-64
2022/09/23 08:23:47;;;;;;;5.60;1.30;;;15.70;60.50;;;;;;5035206;28;20383;-64
2022/09/23 08:26:12;;;;;;;2.08;1.20;;;15.90;60.00;;;;;;5035244;28;20040;-64
2022/09/23 08:28:38;;;;;;;3.70;1.10;;;15.90;59.00;;;;;;5034175;28;20021;-64
2022/09/23 08:31:04;;;;;;;2.10;1.00;;;15.90;58.80;;;;;;5035240;28;20034;-63
2022/09/23 08:33:29;;;;;;;8.98;1.20;;;15.90;58.30;;;;;;5035089;28;20028;-64
2022/09/23 08:36:01;;;;;;;3.15;1.10;;;16.00;58.20;;;;;;5035156;28;20036;-64
2022/09/23 08:38:27;;;;;;;2.10;1.05;;;16.00;59.00;;;;;;5035446;28;20100;-63
2022/09/23 08:41:03;;;;;;;2.60;1.20;;;16.10;59.60;;;;;;5034903;28;20096;-68
2022/09/23 08:43:32;;;;;;;3.95;1.17;;;16.20;60.20;;;;;;5035042;28;20058;-63
2022/09/23 08:46:03;;;;;;;3.75;1.42;;;16.30;60.30;;;;;;5034907;28;20492;-63
2022/09/23 08:48:49;;;;;;;2.88;1.15;;;16.30;60.40;;;;;;5034775;28;20022;-64
2022/09/23 08:51:22;;;;;;;5.07;1.10;;;16.40;60.00;;;;;;5034609;28;20053;-63
2022/09/23 08:53:48;;;;;;;3.88;1.02;;;16.50;59.40;;;;;;5034505;28;20033;-67
2022/09/23 08:56:21;;;;;;;2.55;1.30;;;16.60;59.30;;;;;;5034833;28;20071;-64
2022/09/23 08:59:06;;;;;;;3.33;1.10;;;16.70;59.10;;;;;;5034646;28;20029;-63
2022/09/23 09:01:56;;;;;;;5.90;0.80;;;16.70;58.40;;;;;;5034849;28;20033;-64
2022/09/23 09:04:51;;;;;;;5.13;1.15;;;16.80;57.90;;;;;;5034691;28;20036;-63
2022/09/23 09:07:28;;;;;;;3.05;1.27;;;16.90;57.60;;;;;;5029922;28;20037;-63
2022/09/23 09:10:15;;;;;;;3.65;1.05;;;16.90;57.10;;;;;;5034517;28;20021;-63
2022/09/23 09:12:45;;;;;;;2.15;1.00;;;17.00;56.80;;;;;;5034705;28;20072;-62
2022/09/23 09:15:22;;;;;;;3.17;0.90;;;17.00;56.90;;;;;;5034303;28;20034;-63
2022/09/23 09:17:58;;;;;;;6.40;0.95;;;17.20;57.50;;;;;;5034124;28;20042;-63
2022/09/23 09:20:38;;;;;;;2.13;1.00;;;17.20;57.20;;;;;;5034340;28;20505;-63
2022/09/23 09:23:21;;;;;;;2.10;1.05;;;17.20;56.90;;;;;;5034256;28;20025;-63
2022/09/23 09:25:48;;;;;;;2.83;0.85;;;17.30;56.00;;;;;;5033967;28;20029;-63
2022/09/23 09:28:29;;;;;;;1.05;0.82;;;17.40;55.40;;;;;;5033976;28;20029;-63
2022/09/23 09:30:58;;;;;;;1.20;0.80;;;17.40;53.20;;;;;;5034148;28;20063;-63
2022/09/23 09:33:50;;;;;;;1.27;0.80;;;17.40;53.40;;;;;;5033844;28;20037;-63
2022/09/23 09:36:34;;;;;;;3.67;1.38;;;17.50;54.20;;;;;;5030456;28;20120;-63
2022/09/23 09:39:00;;;;;;;2.95;1.00;;;17.60;54.10;;;;;;5033938;28;20026;-63
2022/09/23 09:41:30;;;;;;;3.58;1.08;;;17.60;53.90;;;;;;5033970;28;20029;-62
2022/09/23 09:43:59;;;;;;;7.57;0.90;;;17.70;53.60;;;;;;5033972;28;20494;-68
2022/09/23 10:18:52;;;;;;;3.35;1.00;;;17.70;52.10;;;;;;5131585;27;20137;-64
2022/09/23 10:21:21;;;;;;;6.07;1.17;;;17.70;52.40;;;;;;5131164;28;20046;-64
2022/09/23 10:23:54;;;;;;;1.00;0.80;;;17.70;52.70;;;;;;5130902;28;20028;-64
2022/09/23 10:26:42;;;;;;;1.73;0.85;;;17.90;52.50;;;;;;5130199;28;20038;-63
2022/09/23 10:29:37;;;;;;;2.38;1.00;;;18.00;52.20;;;;;;5131291;28;20020;-66
2022/09/23 10:32:36;;;;;;;2.03;0.77;;;18.10;52.30;;;;;;5108805;28;20042;-64
2022/09/23 10:35:12;;;;;;;3.28;0.82;;;18.30;52.90;;;;;;5126764;28;20110;-65
2022/09/23 10:37:39;;;;;;;2.33;0.70;;;18.40;52.50;;;;;;5130894;28;20067;-64
2022/09/23 10:46:41;;;;;;;1.30;0.82;;;18.60;53.10;;;;;;5130555;28;20034;-63
2022/09/23 10:49:37;;;;;;;1.30;0.80;;;18.70;50.20;;;;;;5130470;28;20376;-64
2022/09/23 10:52:35;;;;;;;1.70;0.90;;;18.80;51.40;;;;;;5130670;28;20093;-70
2022/09/23 10:55:15;;;;;;;1.52;0.70;;;18.80;51.90;;;;;;5130556;28;20015;-64
2022/09/23 10:57:44;;;;;;;0.98;0.60;;;18.90;52.10;;;;;;5130646;28;20038;-70
2022/09/23 11:00:29;;;;;;;2.47;0.80;;;19.00;52.70;;;;;;5130774;28;20049;-64
2022/09/23 11:03:31;;;;;;;0.88;0.57;;;19.00;52.70;;;;;;5130335;28;20027;-64
2022/09/23 11:06:12;;;;;;;2.65;0.70;;;19.20;52.20;;;;;;5100947;28;20035;-65
2022/09/23 11:08:41;;;;;;;1.17;0.70;;;19.20;52.10;;;;;;5130218;28;20116;-64
2022/09/23 11:11:17;;;;;;;0.88;0.70;;;19.30;51.80;;;;;;5130390;28;20261;-64
2022/09/23 11:14:15;;;;;;;2.58;0.82;;;19.30;51.80;;;;;;5128271;28;20020;-64
2022/09/23 11:17:06;;;;;;;1.92;0.80;;;19.30;51.50;;;;;;5121472;28;20075;-64
2022/09/23 11:19:56;;;;;;;1.38;0.95;;;19.30;51.80;;;;;;5130013;28;20024;-64
2022/09/23 11:22:34;;;;;;;1.58;0.75;;;19.40;50.60;;;;;;5130109;28;20076;-64
2022/09/23 11:25:24;;;;;;;0.75;0.63;;;19.50;51.50;;;;;;5130161;28;20024;-67
2022/09/23 11:28:09;;;;;;;1.73;0.73;;;19.50;51.20;;;;;;5129603;28;20023;-64
2022/09/23 11:30:50;;;;;;;5.00;0.90;;;19.60;51.50;;;;;;5116177;28;20020;-63
2022/09/23 11:33:51;;;;;;;3.60;0.70;;;19.60;52.20;;;;;;5116263;28;20030;-64
2022/09/23 11:36:35;;;;;;;3.22;0.80;;;19.50;50.60;;;;;;5116199;28;20031;-64
2022/09/23 11:39:11;;;;;;;1.92;0.70;;;19.40;51.20;;;;;;5113763;28;20036;-64
2022/09/23 11:41:39;;;;;;;2.78;0.90;;;19.50;51.10;;;;;;5113488;28;20487;-64
2022/09/23 11:44:43;;;;;;;6.15;0.80;;;19.50;50.30;;;;;;5113705;28;20134;-64
2022/09/23 11:47:23;;;;;;;1.85;0.90;;;19.50;51.30;;;;;;5113048;28;20082;-70
2022/09/23 11:50:08;;;;;;;3.10;0.88;;;19.60;51.00;;;;;;5116198;28;20365;-67
2022/09/23 11:52:52;;;;;;;2.05;0.88;;;19.70;51.00;;;;;;5115894;28;20023;-72
2022/09/23 11:55:23;;;;;;;2.92;0.80;;;19.80;51.70;;;;;;5115774;28;20030;-65
2022/09/23 11:58:12;;;;;;;2.85;0.80;;;19.90;51.30;;;;;;5115631;28;20423;-67
2022/09/23 12:00:46;;;;;;;1.75;0.70;;;19.90;50.40;;;;;;5115863;28;20535;-71
2022/09/23 12:03:47;;;;;;;1.00;0.82;;;20.00;50.10;;;;;;5115622;28;20075;-69
2022/09/23 12:06:23;;;;;;;1.80;0.70;;;20.00;48.90;;;;;;5107356;28;20503;-69
2022/09/23 12:09:00;;;;;;;1.15;0.95;;;19.90;49.00;;;;;;5115585;28;20020;-63
2022/09/23 12:11:34;;;;;;;2.47;0.93;;;19.90;49.60;;;;;;5115362;28;20019;-66
2022/09/23 12:14:13;;;;;;;3.08;0.77;;;19.90;49.40;;;;;;5115456;28;20019;-69
2022/09/23 12:16:57;;;;;;;1.00;0.80;;;19.90;49.80;;;;;;5114918;28;20051;-63
2022/09/23 12:19:26;;;;;;;0.73;0.70;;;19.90;50.20;;;;;;5115292;28;20027;-66
2022/09/23 12:22:23;;;;;;;3.67;0.98;;;19.90;50.30;;;;;;5114956;28;20016;-64
2022/09/23 12:25:11;;;;;;;1.92;1.00;;;20.00;50.10;;;;;;5114844;28;20027;-63
2022/09/23 12:27:45;;;;;;;3.13;0.93;;;20.00;49.60;;;;;;5114199;28;20414;-66
2022/09/23 12:30:19;;;;;;;1.98;0.80;;;20.00;49.00;;;;;;5113982;28;20019;-69
2022/09/23 12:32:46;;;;;;;1.98;1.08;;;20.00;50.00;;;;;;5114086;28;20016;-71
2022/09/23 12:35:31;;;;;;;2.03;0.90;;;20.00;49.90;;;;;;5113639;28;20425;-63
2022/09/23 12:38:00;;;;;;;4.55;0.90;;;19.90;50.50;;;;;;5114344;27;20040;-70
2022/09/23 12:40:34;;;;;;;3.60;0.75;;;19.80;51.20;;;;;;5113824;28;20020;-67
2022/09/23 12:43:01;;;;;;;3.20;1.05;;;19.80;51.60;;;;;;5114069;28;20026;-66
2022/09/23 12:45:30;;;;;;;2.60;0.88;;;19.80;51.20;;;;;;5115062;28;20024;-66
2022/09/23 12:47:57;;;;;;;3.80;0.90;;;19.70;51.00;;;;;;5096401;28;20432;-69
2022/09/23 12:50:51;;;;;;;2.63;1.05;;;19.70;51.00;;;;;;5114747;28;20106;-70
2022/09/23 12:53:32;;;;;;;0.82;0.80;;;19.70;51.30;;;;;;5114610;28;20039;-68
2022/09/23 12:56:00;;;;;;;1.83;1.00;;;19.80;50.90;;;;;;5114524;28;20043;-66
2022/09/23 12:59:01;;;;;;;2.80;1.00;;;19.90;50.40;;;;;;5113807;28;20027;-64
2022/09/23 13:01:34;;;;;;;2.40;0.73;;;20.00;50.70;;;;;;5114035;28;20035;-65
2022/09/23 13:07:05;;;;;;;2.17;1.20;;;20.00;51.20;;;;;;5113992;28;20035;-75
2022/09/23 13:09:39;;;;;;;2.20;0.90;;;20.10;50.40;;;;;;5113790;28;20024;-67
2022/09/23 13:12:16;;;;;;;3.63;0.95;;;20.20;50.60;;;;;;5113940;28;20027;-64
2022/09/23 13:14:45;;;;;;;2.33;0.75;;;20.10;50.90;;;;;;5114040;28;20068;-63
2022/09/23 13:17:43;;;;;;;1.90;0.90;;;20.10;50.80;;;;;;5113499;28;20079;-63
2022/09/23 13:20:20;;;;;;;1.65;0.93;;;20.00;51.30;;;;;;5057801;28;20046;-72
2022/09/23 13:22:52;;;;;;;3.17;0.90;;;20.00;51.40;;;;;;5113813;28;20498;-70
2022/09/23 13:25:27;;;;;;;6.23;1.20;;;20.10;51.30;;;;;;5113768;28;20164;-64
2022/09/23 13:28:00;;;;;;;3.22;1.02;;;20.10;51.10;;;;;;5113965;28;20333;-63
2022/09/23 13:30:26;;;;;;;2.30;0.85;;;20.20;50.90;;;;;;5113901;28;20028;-66
2022/09/23 13:33:13;;;;;;;2.35;0.90;;;20.30;51.10;;;;;;5113882;28;20024;-66
2022/09/23 13:36:03;;;;;;;2.58;1.23;;;20.30;51.20;;;;;;5113787;28;20153;-66
2022/09/23 13:38:31;;;;;;;1.40;0.90;;;20.40;49.30;;;;;;5100929;28;20043;-66
2022/09/23 13:41:00;;;;;;;3.35;1.40;;;20.40;49.70;;;;;;5113559;28;20019;-66
2022/09/23 13:43:38;;;;;;;1.75;1.10;;;20.40;49.40;;;;;;5113934;28;20133;-67
2022/09/23 13:46:11;;;;;;;2.40;0.95;;;20.40;49.30;;;;;;5113880;28;20028;-64
2022/09/23 13:48:37;;;;;;;3.90;0.90;;;20.50;50.00;;;;;;5113618;28;20409;-64
2022/09/23 13:51:11;;;;;;;1.67;1.00;;;20.50;51.10;;;;;;5113695;28;20057;-63
2022/09/23 13:53:37;;;;;;;2.05;1.10;;;20.60;50.10;;;;;;5113840;28;20106;-64
2022/09/23 13:56:06;;;;;;;4.18;0.77;;;20.60;49.60;;;;;;5113715;28;20076;-73
2022/09/23 13:58:34;;;;;;;1.27;0.70;;;20.60;49.50;;;;;;5112981;28;20071;-69
2022/09/23 14:01:00;;;;;;;2.08;0.80;;;20.60;50.20;;;;;;5113165;28;20379;-64